createdAt,value
2022-09-18T00:01:50.497Z,66.95
2022-09-18T00:06:44.974Z,66.93
2022-09-18T00:11:40.008Z,66.78
2022-09-18T00:16:31.856Z,66.33
2022-09-18T00:21:25.322Z,66.38
2022-09-18T00:26:18.539Z,66.44
2022-09-18T00:31:22.107Z,66.21
2022-09-18T00:36:16.507Z,66.16
2022-09-18T00:41:17.849Z,66.37
2022-09-18T00:46:41.903Z,66.16
2022-09-18T00:51:36.198Z,66.59
2022-09-18T00:56:28.338Z,66.13
2022-09-18T01:01:20.066Z,66.21
2022-09-18T01:06:22.985Z,65.95
2022-09-18T01:11:56.284Z,65.71
2022-09-18T01:16:57.704Z,65.96
2022-09-18T01:22:18.782Z,65.99
2022-09-18T01:27:18.658Z,66.63
2022-09-18T01:32:19.476Z,66.71
2022-09-18T01:37:36.829Z,66.76
2022-09-18T01:42:31.120Z,66.93
2022-09-18T01:47:28.998Z,66.70
2022-09-18T01:52:26.801Z,67.25
2022-09-18T01:57:25.590Z,67.01
2022-09-18T02:02:49.876Z,66.76
2022-09-18T02:07:52.014Z,66.73
2022-09-18T02:12:45.189Z,66.91
2022-09-18T02:17:53.440Z,66.83
2022-09-18T02:22:46.711Z,66.81
2022-09-18T02:27:40.373Z,66.79
2022-09-18T02:32:32.477Z,66.93
2022-09-18T02:37:28.940Z,67.20
2022-09-18T02:42:27.219Z,67.78
2022-09-18T02:47:46.284Z,67.32
2022-09-18T02:52:50.101Z,67.49
2022-09-18T02:57:49.493Z,68.06
2022-09-18T03:02:41.236Z,67.70
2022-09-18T03:07:33.009Z,68.40
2022-09-18T03:12:24.703Z,68.40
2022-09-18T03:17:16.509Z,68.18
2022-09-18T03:22:08.197Z,68.30
2022-09-18T03:26:59.867Z,68.38
2022-09-18T03:31:51.624Z,68.69
2022-09-18T03:36:43.272Z,69.03
2022-09-18T03:41:34.944Z,69.10
2022-09-18T03:46:26.565Z,68.68
2022-09-18T03:51:19.688Z,68.84
2022-09-18T03:56:12.161Z,69.07
2022-09-18T04:01:03.981Z,69.47
2022-09-18T04:05:55.617Z,69.89
2022-09-18T04:10:48.322Z,70.45
2022-09-18T04:15:40.048Z,70.57
2022-09-18T04:20:31.790Z,70.97
2022-09-18T04:25:23.500Z,71.20
2022-09-18T04:30:15.178Z,71.79
2022-09-18T04:35:07.522Z,71.65
2022-09-18T04:39:59.165Z,72.11
2022-09-18T04:44:51.021Z,72.23
2022-09-18T04:49:42.669Z,72.53
2022-09-18T04:54:34.610Z,72.77
2022-09-18T04:59:26.235Z,73.02
2022-09-18T05:04:17.837Z,73.07
2022-09-18T05:09:09.559Z,73.24
2022-09-18T05:14:01.253Z,73.33
2022-09-18T05:18:53.214Z,73.02
2022-09-18T05:23:45.433Z,73.10
2022-09-18T05:28:37.582Z,72.98
2022-09-18T05:33:29.532Z,72.48
2022-09-18T05:38:21.178Z,73.05
2022-09-18T05:43:12.825Z,73.26
2022-09-18T05:48:06.438Z,73.25
2022-09-18T05:52:58.015Z,73.08
2022-09-18T05:57:53.857Z,72.95
2022-09-18T06:02:55.952Z,72.70
2022-09-18T06:07:47.814Z,73.15
2022-09-18T06:12:39.519Z,73.59
2022-09-18T06:17:31.119Z,72.78
2022-09-18T06:22:22.855Z,73.00
2022-09-18T06:27:14.481Z,73.39
2022-09-18T06:32:06.239Z,73.43
2022-09-18T06:36:57.874Z,73.61
2022-09-18T06:41:49.872Z,73.90
2022-09-18T06:46:41.655Z,74.46
2022-09-18T06:51:33.250Z,74.42
2022-09-18T06:56:24.977Z,73.91
2022-09-18T07:01:16.622Z,73.32
2022-09-18T07:06:10.341Z,73.72
2022-09-18T07:11:02.441Z,73.94
2022-09-18T07:15:54.168Z,74.49
2022-09-18T07:20:45.870Z,74.43
2022-09-18T07:25:37.533Z,74.17
2022-09-18T07:30:29.190Z,73.33
2022-09-18T07:35:20.934Z,72.13
2022-09-18T07:40:12.714Z,71.29
2022-09-18T07:45:06.005Z,71.15
2022-09-18T07:49:57.660Z,70.75
2022-09-18T07:54:49.340Z,70.69
2022-09-18T07:59:40.994Z,70.07
2022-09-18T08:04:32.665Z,69.80
2022-09-18T08:09:24.317Z,69.50
2022-09-18T08:14:16.637Z,68.92
2022-09-18T08:19:08.732Z,68.72
2022-09-18T08:24:00.614Z,68.26
2022-09-18T08:28:52.529Z,68.12
2022-09-18T08:33:44.264Z,68.21
2022-09-18T08:38:36.218Z,67.94
2022-09-18T08:43:47.541Z,67.64
2022-09-18T08:48:45.552Z,67.56
2022-09-18T08:53:40.444Z,68.49
2022-09-18T08:58:49.180Z,67.83
2022-09-18T09:03:53.214Z,66.31
2022-09-18T09:09:12.537Z,66.54
2022-09-18T09:14:55.483Z,64.71
2022-09-18T09:20:21.449Z,64.79
2022-09-18T09:25:50.782Z,63.97
2022-09-18T09:30:48.945Z,63.56
2022-09-18T09:35:45.498Z,64.53
2022-09-18T09:40:45.485Z,63.91
2022-09-18T09:45:49.754Z,61.85
2022-09-18T09:51:12.009Z,58.66
2022-09-18T09:56:09.752Z,57.37
2022-09-18T10:01:10.697Z,56.88
2022-09-18T10:06:15.590Z,56.07
2022-09-18T10:11:11.388Z,53.18
2022-09-18T10:16:38.979Z,51.75
2022-09-18T10:21:35.209Z,52.02
2022-09-18T10:26:35.236Z,51.81
2022-09-18T10:31:49.375Z,51.96
2022-09-18T10:36:43.371Z,50.60
2022-09-18T10:41:38.913Z,49.48
2022-09-18T10:46:33.745Z,49.22
2022-09-18T10:51:26.886Z,50.00
2022-09-18T10:56:20.485Z,48.93
2022-09-18T11:01:14.003Z,49.87
2022-09-18T11:06:15.704Z,50.38
2022-09-18T11:11:11.319Z,52.49
2022-09-18T11:16:03.829Z,53.54
2022-09-18T11:20:57.894Z,54.10
2022-09-18T11:25:50.064Z,54.56
2022-09-18T11:30:41.794Z,54.58
2022-09-18T11:35:33.662Z,54.96
2022-09-18T11:40:30.860Z,54.76
2022-09-18T11:45:47.392Z,55.74
2022-09-18T11:50:39.579Z,55.95
2022-09-18T11:55:44.842Z,54.50
2022-09-18T12:00:50.895Z,54.08
2022-09-18T12:05:51.592Z,55.05
2022-09-18T12:10:59.190Z,53.89
2022-09-18T12:15:59.150Z,53.09
2022-09-18T12:20:57.882Z,56.62
2022-09-18T12:26:17.004Z,55.97
2022-09-18T12:31:19.659Z,55.60
2022-09-18T12:36:29.583Z,53.97
2022-09-18T12:41:32.925Z,52.84
2022-09-18T12:46:59.862Z,53.29
2022-09-18T12:51:54.925Z,51.93
2022-09-18T12:56:55.709Z,50.51
2022-09-18T13:02:06.238Z,52.42
2022-09-18T13:07:21.910Z,52.59
2022-09-18T13:12:20.934Z,53.59
2022-09-18T13:17:18.584Z,54.45
2022-09-18T13:22:15.922Z,55.05
2022-09-18T13:27:13.259Z,55.67
2022-09-18T13:32:05.042Z,56.55
2022-09-18T13:37:06.423Z,57.32
2022-09-18T13:41:59.803Z,58.13
2022-09-18T13:46:55.115Z,58.88
2022-09-18T13:51:47.305Z,59.08
2022-09-18T13:57:04.065Z,58.99
2022-09-18T14:01:55.947Z,59.00
2022-09-18T14:06:47.748Z,59.70
2022-09-18T14:11:39.393Z,61.32
2022-09-18T14:16:38.862Z,62.74
2022-09-18T14:21:40.292Z,63.07
2022-09-18T14:26:38.524Z,62.86
2022-09-18T14:31:38.087Z,62.51
2022-09-18T14:36:47.638Z,62.49
2022-09-18T14:41:39.316Z,62.45
2022-09-18T14:46:31.880Z,62.95
2022-09-18T14:51:26.954Z,63.78
2022-09-18T14:56:27.310Z,63.35
2022-09-18T15:01:26.835Z,63.55
2022-09-18T15:06:24.278Z,64.31
2022-09-18T15:11:18.279Z,63.54
2022-09-18T15:16:39.389Z,63.85
2022-09-18T15:21:33.828Z,64.88
2022-09-18T15:26:32.769Z,65.54
2022-09-18T15:31:29.908Z,65.23
2022-09-18T15:36:31.627Z,65.86
2022-09-18T15:41:32.342Z,66.54
2022-09-18T15:46:29.626Z,66.83
2022-09-18T15:51:36.061Z,67.23
2022-09-18T15:56:28.579Z,67.05
2022-09-18T16:01:24.196Z,67.26
2022-09-18T16:06:26.496Z,67.15
2022-09-18T16:11:44.728Z,67.23
2022-09-18T16:16:36.460Z,67.64
2022-09-18T16:21:30.417Z,68.11
2022-09-18T16:26:34.467Z,67.79
2022-09-18T16:31:28.702Z,68.51
2022-09-18T16:36:39.032Z,67.01
2022-09-18T16:41:31.565Z,65.76
2022-09-18T16:46:31.377Z,65.77
2022-09-18T16:51:23.166Z,66.54
2022-09-18T16:56:20.231Z,66.58
2022-09-18T17:01:11.959Z,67.75
2022-09-18T17:06:03.772Z,68.28
2022-09-18T17:10:55.443Z,68.91
2022-09-18T17:15:47.245Z,67.80
2022-09-18T17:20:38.920Z,68.25
2022-09-18T17:25:30.636Z,68.83
2022-09-18T17:30:22.929Z,68.85
2022-09-18T17:35:16.289Z,69.78
2022-09-18T17:40:09.517Z,70.61
2022-09-18T17:45:01.265Z,71.41
2022-09-18T17:49:52.930Z,71.47
2022-09-18T17:54:44.636Z,71.32
2022-09-18T17:59:36.838Z,71.47
2022-09-18T18:04:31.117Z,72.07
2022-09-18T18:09:22.944Z,72.23
2022-09-18T18:14:14.899Z,72.05
2022-09-18T18:19:11.939Z,72.72
2022-09-18T18:24:11.032Z,73.60
2022-09-18T18:29:02.883Z,73.71
2022-09-18T18:33:55.751Z,73.75
2022-09-18T18:38:50.493Z,74.93
2022-09-18T18:43:42.620Z,75.53
2022-09-18T18:48:36.865Z,76.41
2022-09-18T18:53:29.159Z,76.08
2022-09-18T18:58:20.751Z,76.24
2022-09-18T19:03:12.411Z,75.98
2022-09-18T19:08:04.337Z,76.22
2022-09-18T19:12:57.323Z,76.42
2022-09-18T19:17:50.297Z,76.83
2022-09-18T19:22:42.033Z,76.67
2022-09-18T19:27:33.587Z,77.10
2022-09-18T19:32:25.685Z,77.45
2022-09-18T19:37:18.419Z,77.41
2022-09-18T19:42:14.938Z,78.06
2022-09-18T19:47:19.144Z,78.45
2022-09-18T19:52:20.475Z,78.61
2022-09-18T19:57:12.452Z,78.78
2022-09-18T20:02:04.260Z,78.85
2022-09-18T20:06:55.929Z,79.50
2022-09-18T20:11:48.470Z,79.48
2022-09-18T20:16:40.159Z,79.89
2022-09-18T20:21:32.176Z,80.21
2022-09-18T20:26:25.010Z,80.50
2022-09-18T20:31:17.456Z,80.89
2022-09-18T20:36:11.528Z,81.54
2022-09-18T20:41:15.187Z,81.31
2022-09-18T20:46:11.524Z,81.77
2022-09-18T20:51:09.144Z,81.65
2022-09-18T20:56:02.991Z,82.22
2022-09-18T21:00:54.621Z,82.48
2022-09-18T21:05:46.485Z,83.01
2022-09-18T21:10:46.720Z,82.76
2022-09-18T21:15:38.923Z,83.14
2022-09-18T21:20:31.561Z,83.42
2022-09-18T21:25:24.725Z,83.15
2022-09-18T21:30:16.395Z,83.43
2022-09-18T21:35:08.649Z,83.81
2022-09-18T21:40:00.470Z,84.02
2022-09-18T21:44:52.125Z,84.58
2022-09-18T21:49:44.048Z,84.64
2022-09-18T21:54:35.737Z,85.67
2022-09-18T21:59:30.679Z,85.22
2022-09-18T22:04:29.232Z,86.56
2022-09-18T22:09:33.282Z,88.11
2022-09-18T22:14:32.170Z,89.47
2022-09-18T22:19:24.183Z,89.92
2022-09-18T22:24:19.467Z,90.12
2022-09-18T22:29:20.172Z,90.40
2022-09-18T22:34:12.991Z,90.56
2022-09-18T22:39:04.792Z,90.20
2022-09-18T22:43:57.873Z,89.86
2022-09-18T22:48:49.840Z,89.99
2022-09-18T22:53:47.124Z,90.60
2022-09-18T22:58:41.391Z,90.41
2022-09-18T23:03:33.917Z,90.21
2022-09-18T23:08:25.567Z,90.19
2022-09-18T23:13:17.470Z,90.93
2022-09-18T23:18:09.136Z,90.91
2022-09-18T23:23:00.822Z,91.23
2022-09-18T23:27:53.103Z,90.90
2022-09-18T23:32:48.523Z,91.18
2022-09-18T23:37:40.140Z,90.96
2022-09-18T23:42:31.848Z,91.19
2022-09-18T23:47:23.635Z,90.89
2022-09-18T23:52:15.380Z,91.48
2022-09-18T23:57:07.097Z,91.03
